»·PEaware :: N505GH KBVS-W39

N505GH :: KBVS-W39

FLIGHT INFORMATION

Flight Status: Arrived
Operator: Privately registered:
United States
More flights under this callsign
Pilot: Gabor H. (24209)
Aircraft: Unknown
(A5)
More flights by this aircraft type
Origin: KBVS Skagit Regl
United States
Destination: W39 Roche Harbor
United States
More flights between these airports :: More routes between these airports
Route: DCT
File this flight plan on PilotEdge
Remarks:
Altitude:
(Current/Filed)
4,500ft
Speed:
(Current/Filed)
95kts
Departed: 26-Apr-19 05:14 PM
Arrived: 26-Apr-19 05:39 PM
Distance/Time
Traveled:
30nm/0:25
Distance/Time
To Go:
Arrived

Flight Plot

Page will automatically refresh every two minutes.

Flight plan parsing failed; only flown route is shown


Map Options




Map Legend


Flown Route
Filed Route
Departure Airport
Arrival Airport
Navaid (VOR, NDB)
Fix

Horizontal Profiles

Position Reports

Time Latitude Longitude Heading Altitude Ground
Speed
26-Apr-19 16:58 48.473830 -122.417638 221 122ft 0kts
26-Apr-19 16:58 48.473830 -122.417638 221 122ft 0kts
26-Apr-19 16:59 48.473830 -122.417638 221 122ft 0kts
26-Apr-19 17:01 48.473830 -122.417638 221 122ft 0kts
26-Apr-19 17:01 48.473830 -122.417638 221 122ft 0kts
26-Apr-19 17:02 48.473830 -122.417638 221 122ft 0kts
26-Apr-19 17:03 48.473830 -122.417638 221 122ft 0kts
26-Apr-19 17:05 48.473830 -122.417638 221 122ft 0kts
26-Apr-19 17:05 48.473830 -122.417638 221 122ft 0kts
26-Apr-19 17:06 48.473830 -122.417638 221 122ft 0kts
26-Apr-19 17:07 48.473829 -122.417639 221 122ft 0kts
26-Apr-19 17:08 48.472888 -122.417176 132 122ft 11kts
26-Apr-19 17:09 48.470783 -122.413276 156 122ft 11kts
26-Apr-19 17:10 48.468353 -122.413367 222 122ft 7kts
26-Apr-19 17:11 48.467741 -122.414678 235 122ft 5kts
26-Apr-19 17:12 48.467276 -122.415710 235 122ft 4kts
26-Apr-19 17:13 48.465304 -122.421441 236 216ft 64kts
26-Apr-19 17:14 48.456508 -122.408709 45 751ft 111kts
26-Apr-19 17:15 48.478600 -122.409067 313 1744ft 84kts
26-Apr-19 17:16 48.483496 -122.443932 284 2433ft 87kts
26-Apr-19 17:17 48.490777 -122.479352 289 2648ft 79kts
26-Apr-19 17:18 48.498372 -122.509372 291 3457ft 75kts
26-Apr-19 17:19 48.507005 -122.540528 290 4368ft 86kts
26-Apr-19 17:20 48.516838 -122.574799 290 5059ft 84kts
26-Apr-19 17:21 48.526036 -122.606398 288 6027ft 79kts
26-Apr-19 17:22 48.534805 -122.640604 285 6523ft 102kts
26-Apr-19 17:23 48.543370 -122.679314 283 6484ft 90kts
26-Apr-19 17:24 48.551210 -122.717333 282 6473ft 88kts
26-Apr-19 17:25 48.558221 -122.753636 281 6494ft 91kts
26-Apr-19 17:26 48.565381 -122.790911 281 6488ft 92kts
26-Apr-19 17:27 48.572566 -122.828169 282 6484ft 92kts
26-Apr-19 17:28 48.579758 -122.865358 282 6484ft 92kts
26-Apr-19 17:29 48.587239 -122.902505 282 6482ft 92kts
26-Apr-19 17:30 48.594708 -122.939746 282 6526ft 96kts
26-Apr-19 17:31 48.602416 -122.978456 282 6460ft 86kts
26-Apr-19 17:32 48.610665 -123.016616 285 5880ft 102kts
26-Apr-19 17:33 48.618880 -123.057033 281 4648ft 104kts
26-Apr-19 17:34 48.625496 -123.100178 281 2859ft 104kts
26-Apr-19 17:35 48.633305 -123.139866 287 1130ft 98kts
26-Apr-19 17:36 48.631864 -123.136514 268 344ft 63kts
26-Apr-19 17:37 48.620611 -123.154488 199 34ft 48kts
26-Apr-19 17:38 48.615615 -123.158291 213 0ft 14kts
26-Apr-19 17:39 48.610895 -123.155261 143 0ft 19kts
26-Apr-19 17:40 48.609733 -123.154120 273 1ft 0kts
26-Apr-19 17:41 48.609838 -123.154505 310 1ft 0kts
26-Apr-19 17:42 48.609838 -123.154505 310 1ft 0kts
26-Apr-19 17:43 48.609838 -123.154505 310 1ft 0kts
26-Apr-19 17:44 48.609838 -123.154505 310 1ft 0kts
26-Apr-19 17:45 48.609838 -123.154505 310 1ft 0kts
26-Apr-19 17:46 48.609838 -123.154505 310 1ft 0kts
26-Apr-19 17:47 48.609866 -123.154469 310 1ft 0kts
26-Apr-19 17:48 48.609866 -123.154469 309 1ft 0kts
26-Apr-19 17:49 48.609865 -123.154468 309 1ft 0kts

Navigation Log

Ident Type
Flight plan parsing failed, navigation log unavailable